createdAt,value
2017-08-16T00:01:32.854Z,64.30
2017-08-16T00:03:59.258Z,63.90
2017-08-16T00:06:25.646Z,63.90
2017-08-16T00:08:52.049Z,64.20
2017-08-16T00:11:18.458Z,64.00
2017-08-16T00:13:44.854Z,63.60
2017-08-16T00:16:12.042Z,63.40
2017-08-16T00:18:38.446Z,63.40
2017-08-16T00:21:05.579Z,64.00
2017-08-16T00:23:32.714Z,64.40
2017-08-16T00:25:59.135Z,64.40
2017-08-16T00:28:25.538Z,64.00
2017-08-16T00:30:51.969Z,63.90
2017-08-16T00:33:18.581Z,64.20
2017-08-16T00:35:45.736Z,64.20
2017-08-16T00:38:12.158Z,64.10
2017-08-16T00:40:39.349Z,64.30
2017-08-16T00:43:05.737Z,64.30
2017-08-16T00:45:32.894Z,64.10
2017-08-16T00:48:00.079Z,64.30
2017-08-16T00:50:26.490Z,64.30
2017-08-16T00:52:52.950Z,64.40
2017-08-16T00:55:19.383Z,64.60
2017-08-16T00:57:51.947Z,65.30
2017-08-16T01:00:18.366Z,65.30
2017-08-16T01:02:44.835Z,65.20
2017-08-16T01:05:11.250Z,65.00
2017-08-16T01:07:37.671Z,64.90
2017-08-16T01:10:04.118Z,64.60
2017-08-16T01:12:30.523Z,64.70
2017-08-16T01:14:57.666Z,64.30
2017-08-16T01:17:24.814Z,65.10
2017-08-16T01:19:52.010Z,65.30
2017-08-16T01:22:18.419Z,65.30
2017-08-16T01:24:44.810Z,66.10
2017-08-16T01:27:11.223Z,66.20
2017-08-16T01:29:37.656Z,66.70
2017-08-16T01:34:37.950Z,66.30
2017-08-16T01:37:04.350Z,66.30
2017-08-16T01:39:30.774Z,66.20
2017-08-16T01:41:57.191Z,66.20
2017-08-16T01:44:23.592Z,66.20
2017-08-16T01:46:50.008Z,66.40
2017-08-16T01:49:17.176Z,66.30
2017-08-16T01:51:43.636Z,66.30
2017-08-16T01:54:10.054Z,65.40
2017-08-16T01:56:36.472Z,66.20
2017-08-16T01:59:02.916Z,67.30
2017-08-16T02:01:29.345Z,67.30
2017-08-16T02:03:55.754Z,67.40
2017-08-16T02:06:22.917Z,67.40
2017-08-16T02:08:49.332Z,67.40
2017-08-16T02:11:16.529Z,66.90
2017-08-16T02:13:42.963Z,66.90
2017-08-16T02:16:09.384Z,67.20
2017-08-16T02:18:35.812Z,67.30
2017-08-16T02:21:02.204Z,67.40
2017-08-16T02:23:28.645Z,67.30
2017-08-16T02:25:55.817Z,67.70
2017-08-16T02:28:22.261Z,67.20
2017-08-16T02:30:48.713Z,67.20
2017-08-16T02:33:15.186Z,67.30
2017-08-16T02:35:43.066Z,68.80
2017-08-16T02:38:10.208Z,69.70
2017-08-16T02:40:36.610Z,69.60
2017-08-16T02:43:03.067Z,69.80
2017-08-16T02:45:29.476Z,70.70
2017-08-16T02:47:55.869Z,71.80
2017-08-16T02:50:22.280Z,72.10
2017-08-16T02:52:49.472Z,70.60
2017-08-16T02:55:15.911Z,70.60
2017-08-16T02:57:42.350Z,69.60
2017-08-16T03:00:08.770Z,69.00
2017-08-16T03:02:35.223Z,67.70
2017-08-16T03:05:02.794Z,67.70
2017-08-16T03:07:29.263Z,67.50
2017-08-16T03:09:56.451Z,67.30
2017-08-16T03:12:22.883Z,67.20
2017-08-16T03:14:49.321Z,67.10
2017-08-16T03:17:15.762Z,67.40
2017-08-16T03:19:42.215Z,67.60
2017-08-16T03:22:08.654Z,67.80
2017-08-16T03:24:35.131Z,68.00
2017-08-16T03:27:01.614Z,68.20
2017-08-16T03:29:28.058Z,69.10
2017-08-16T03:31:54.521Z,69.20
2017-08-16T03:34:20.988Z,69.50
2017-08-16T03:36:47.439Z,69.20
2017-08-16T03:39:13.878Z,69.30
2017-08-16T03:41:40.346Z,69.80
2017-08-16T03:44:07.554Z,70.10
2017-08-16T03:46:34.041Z,69.50
2017-08-16T03:49:00.461Z,69.20
2017-08-16T03:51:27.630Z,69.30
2017-08-16T03:53:54.066Z,69.20
2017-08-16T03:56:20.506Z,69.10
2017-08-16T03:58:46.951Z,68.60
2017-08-16T04:01:13.406Z,68.40
2017-08-16T04:03:39.851Z,67.70
2017-08-16T04:06:06.294Z,68.50
2017-08-16T04:08:32.763Z,68.80
2017-08-16T04:10:59.233Z,68.30
2017-08-16T04:13:25.686Z,68.30
2017-08-16T04:15:52.139Z,68.10
2017-08-16T04:18:18.597Z,67.80
2017-08-16T04:20:45.049Z,68.40
2017-08-16T04:23:11.474Z,68.40
2017-08-16T04:25:37.914Z,68.40
2017-08-16T04:28:04.399Z,68.40
2017-08-16T04:30:30.841Z,68.30
2017-08-16T04:32:58.020Z,68.80
2017-08-16T04:35:24.491Z,68.90
2017-08-16T04:37:50.919Z,69.20
2017-08-16T04:40:17.371Z,69.10
2017-08-16T04:42:43.854Z,69.30
2017-08-16T04:45:10.275Z,69.00
2017-08-16T04:47:37.435Z,70.20
2017-08-16T04:50:03.902Z,70.20
2017-08-16T04:52:30.357Z,70.70
2017-08-16T04:54:56.823Z,71.00
2017-08-16T04:57:24.030Z,70.80
2017-08-16T04:59:50.487Z,70.70
2017-08-16T05:02:16.943Z,70.10
2017-08-16T05:04:44.139Z,69.10
2017-08-16T05:07:10.566Z,69.00
2017-08-16T05:09:37.105Z,68.80
2017-08-16T05:12:03.594Z,68.60
2017-08-16T05:14:30.779Z,66.40
2017-08-16T05:16:57.210Z,66.40
2017-08-16T05:19:23.678Z,65.90
2017-08-16T05:21:50.143Z,65.40
2017-08-16T05:24:17.334Z,65.30
2017-08-16T05:26:43.802Z,65.30
2017-08-16T05:29:22.951Z,65.50
2017-08-16T05:31:50.139Z,65.40
2017-08-16T05:34:16.614Z,65.10
2017-08-16T05:36:43.067Z,65.60
2017-08-16T05:39:10.262Z,65.80
2017-08-16T05:41:36.711Z,66.40
2017-08-16T05:44:03.134Z,65.80
2017-08-16T05:46:29.581Z,65.60
2017-08-16T05:48:56.023Z,65.70
2017-08-16T05:51:22.447Z,65.70
2017-08-16T05:53:48.878Z,65.90
2017-08-16T05:56:15.306Z,65.80
2017-08-16T05:58:41.723Z,66.10
2017-08-16T06:01:08.161Z,66.80
2017-08-16T06:03:34.579Z,67.00
2017-08-16T06:06:00.998Z,66.90
2017-08-16T06:08:28.158Z,66.40
2017-08-16T06:10:54.587Z,66.40
2017-08-16T06:13:21.020Z,66.70
2017-08-16T06:15:47.422Z,66.10
2017-08-16T06:18:13.911Z,65.80
2017-08-16T06:20:40.306Z,65.30
2017-08-16T06:23:07.463Z,64.70
2017-08-16T06:25:33.884Z,64.30
2017-08-16T06:28:01.031Z,61.00
2017-08-16T06:30:28.171Z,59.90
2017-08-16T06:32:54.580Z,59.30
2017-08-16T06:35:20.971Z,58.90
2017-08-16T06:37:47.378Z,57.00
2017-08-16T06:40:13.770Z,56.00
2017-08-16T06:42:40.186Z,55.00
2017-08-16T06:45:06.603Z,55.50
2017-08-16T06:47:33.016Z,54.60
2017-08-16T06:50:00.143Z,55.50
2017-08-16T06:52:26.543Z,55.50
2017-08-16T06:54:52.978Z,55.90
2017-08-16T06:57:19.391Z,55.30
2017-08-16T06:59:45.795Z,54.80
2017-08-16T07:02:12.994Z,55.70
2017-08-16T07:04:39.366Z,55.70
2017-08-16T07:07:05.767Z,56.20
2017-08-16T07:09:32.203Z,55.90
2017-08-16T07:11:58.619Z,55.50
2017-08-16T07:14:25.031Z,55.30
2017-08-16T07:16:51.422Z,54.80
2017-08-16T07:19:32.764Z,54.70
2017-08-16T07:21:59.162Z,54.80
2017-08-16T07:24:26.328Z,55.70
2017-08-16T07:26:52.760Z,55.60
2017-08-16T07:29:19.159Z,55.00
2017-08-16T07:31:45.596Z,54.60
2017-08-16T07:34:12.011Z,54.90
2017-08-16T07:36:38.466Z,56.00
2017-08-16T07:39:04.886Z,56.00
2017-08-16T07:41:32.026Z,55.40
2017-08-16T07:43:58.423Z,55.50
2017-08-16T07:46:24.840Z,54.10
2017-08-16T07:48:51.230Z,54.40
2017-08-16T07:51:17.644Z,55.60
2017-08-16T07:53:44.077Z,55.10
2017-08-16T07:56:10.478Z,54.80
2017-08-16T07:58:36.856Z,54.90
2017-08-16T08:01:03.239Z,54.00
2017-08-16T08:03:29.654Z,53.50
2017-08-16T08:06:03.791Z,53.20
2017-08-16T08:08:30.188Z,52.60
2017-08-16T08:10:56.616Z,53.00
2017-08-16T08:13:23.017Z,53.30
2017-08-16T08:15:49.444Z,52.80
2017-08-16T08:18:15.851Z,53.30
2017-08-16T08:20:42.271Z,53.10
2017-08-16T08:23:09.419Z,51.60
2017-08-16T08:25:36.554Z,53.10
2017-08-16T08:28:03.703Z,53.20
2017-08-16T08:30:30.106Z,52.60
2017-08-16T08:32:56.538Z,52.50
2017-08-16T08:35:22.930Z,53.60
2017-08-16T08:37:49.334Z,53.90
2017-08-16T08:40:15.731Z,53.70
2017-08-16T08:42:42.143Z,53.40
2017-08-16T08:45:08.534Z,53.80
2017-08-16T08:47:34.924Z,52.50
2017-08-16T08:50:01.335Z,52.60
2017-08-16T08:52:27.710Z,53.40
2017-08-16T08:54:54.132Z,53.90
2017-08-16T08:57:20.558Z,52.90
2017-08-16T08:59:46.939Z,53.90
2017-08-16T09:02:14.102Z,54.10
2017-08-16T09:04:40.510Z,54.10
2017-08-16T09:07:07.642Z,54.60
2017-08-16T09:09:34.062Z,54.60
2017-08-16T09:12:00.774Z,54.60
2017-08-16T09:14:27.252Z,54.40
2017-08-16T09:16:53.659Z,54.90
2017-08-16T09:19:20.041Z,55.30
2017-08-16T09:21:47.222Z,55.50
2017-08-16T09:24:13.655Z,55.50
2017-08-16T09:26:40.069Z,56.10
2017-08-16T09:29:07.219Z,56.20
2017-08-16T09:31:33.627Z,56.10
2017-08-16T09:34:00.043Z,56.30
2017-08-16T09:36:26.482Z,56.80
2017-08-16T09:38:52.899Z,57.00
2017-08-16T09:41:19.314Z,57.50
2017-08-16T09:43:45.702Z,57.20
2017-08-16T09:46:12.108Z,56.40
2017-08-16T09:48:38.530Z,56.90
2017-08-16T09:51:04.931Z,56.50
2017-08-16T09:53:31.342Z,56.50
2017-08-16T09:55:58.486Z,57.10
2017-08-16T09:58:25.634Z,57.20
2017-08-16T10:00:52.774Z,57.10
2017-08-16T10:03:19.195Z,57.10
2017-08-16T10:05:45.607Z,57.00
2017-08-16T10:08:12.017Z,56.60
2017-08-16T10:10:38.407Z,56.60
2017-08-16T10:13:04.807Z,56.40
2017-08-16T10:15:31.197Z,56.30
2017-08-16T10:17:57.591Z,56.40
2017-08-16T10:20:23.995Z,56.30
2017-08-16T10:22:50.378Z,56.60
2017-08-16T10:25:17.535Z,57.60
2017-08-16T10:27:44.707Z,56.40
2017-08-16T10:30:11.162Z,56.40
2017-08-16T10:32:37.599Z,55.70
2017-08-16T10:35:04.027Z,56.80
2017-08-16T10:37:30.414Z,56.30
2017-08-16T10:39:57.591Z,55.30
2017-08-16T10:42:24.003Z,55.30
2017-08-16T10:44:50.443Z,55.50
2017-08-16T10:47:16.876Z,54.80
2017-08-16T10:49:43.266Z,55.10
2017-08-16T10:52:09.694Z,55.20
2017-08-16T10:54:36.181Z,54.40
2017-08-16T10:57:02.609Z,54.60
2017-08-16T10:59:29.031Z,55.10
2017-08-16T11:01:56.196Z,55.40
2017-08-16T11:04:22.610Z,55.30
2017-08-16T11:06:49.762Z,56.40
2017-08-16T11:09:16.902Z,56.60
2017-08-16T11:11:44.434Z,56.00
2017-08-16T11:14:10.848Z,56.30
2017-08-16T11:16:37.287Z,55.50
2017-08-16T11:19:03.671Z,55.60
2017-08-16T11:21:30.835Z,55.60
2017-08-16T11:23:57.254Z,55.60
2017-08-16T11:26:24.392Z,55.70
2017-08-16T11:28:51.522Z,54.70
2017-08-16T11:31:17.926Z,55.00
2017-08-16T11:33:44.347Z,55.30
2017-08-16T11:36:10.778Z,54.80
2017-08-16T11:38:37.216Z,55.30
2017-08-16T11:41:03.622Z,55.00
2017-08-16T11:43:30.765Z,55.30
2017-08-16T11:45:57.914Z,55.20
2017-08-16T11:48:25.034Z,55.40
2017-08-16T11:50:51.485Z,55.30
2017-08-16T11:53:18.679Z,55.00
2017-08-16T11:55:45.098Z,55.40
2017-08-16T11:58:26.430Z,54.90
2017-08-16T12:00:52.834Z,55.20
2017-08-16T12:03:19.250Z,55.10
2017-08-16T12:05:45.638Z,55.10
2017-08-16T12:08:12.044Z,55.50
2017-08-16T12:10:38.470Z,55.40
2017-08-16T12:13:04.862Z,55.50
2017-08-16T12:15:31.991Z,55.10
2017-08-16T12:17:58.387Z,55.10
2017-08-16T12:20:24.802Z,55.20
2017-08-16T12:22:51.206Z,54.80
2017-08-16T12:25:18.359Z,54.70
2017-08-16T12:27:45.515Z,55.00
2017-08-16T12:30:11.943Z,55.00
2017-08-16T12:32:38.367Z,55.20
2017-08-16T12:35:05.515Z,55.30
2017-08-16T12:37:32.675Z,55.10
2017-08-16T12:39:59.838Z,55.50
2017-08-16T12:42:26.223Z,55.50
2017-08-16T12:44:52.618Z,55.50
2017-08-16T12:47:19.044Z,56.00
2017-08-16T12:49:45.483Z,55.80
2017-08-16T12:52:11.894Z,56.00
2017-08-16T12:54:39.021Z,56.60
2017-08-16T12:57:07.555Z,56.60
2017-08-16T12:59:33.933Z,56.30
2017-08-16T13:02:00.402Z,57.30
2017-08-16T13:04:26.791Z,56.40
2017-08-16T13:06:53.190Z,55.80
2017-08-16T13:09:26.548Z,55.50
2017-08-16T13:11:53.694Z,55.20
2017-08-16T13:14:20.851Z,55.40
2017-08-16T13:16:47.246Z,55.40
2017-08-16T13:19:13.665Z,54.50
2017-08-16T13:21:40.075Z,54.50
2017-08-16T13:24:06.482Z,54.20
2017-08-16T13:26:33.640Z,54.60
2017-08-16T13:29:00.780Z,55.30
2017-08-16T13:31:27.924Z,54.90
2017-08-16T13:33:55.118Z,54.50
2017-08-16T13:36:21.550Z,54.50
2017-08-16T13:38:47.962Z,54.10
2017-08-16T13:41:14.372Z,54.50
2017-08-16T13:43:41.522Z,53.50
2017-08-16T13:46:08.727Z,53.20
2017-08-16T13:48:35.155Z,53.20
2017-08-16T13:51:16.492Z,53.00
2017-08-16T13:53:43.667Z,52.30
2017-08-16T13:56:10.067Z,52.40
2017-08-16T13:58:36.446Z,52.20
2017-08-16T14:01:02.886Z,52.00
2017-08-16T14:03:29.267Z,51.50
2017-08-16T14:05:55.874Z,51.20
2017-08-16T14:08:22.274Z,51.40
2017-08-16T14:10:48.676Z,50.90
2017-08-16T14:13:15.831Z,51.00
2017-08-16T14:15:42.946Z,51.30
2017-08-16T14:18:09.357Z,51.50
2017-08-16T14:20:35.783Z,51.60
2017-08-16T14:23:02.207Z,51.90
2017-08-16T14:25:28.603Z,51.60
2017-08-16T14:27:54.995Z,51.30
2017-08-16T14:30:21.415Z,50.30
2017-08-16T14:32:47.866Z,51.20
2017-08-16T14:35:14.270Z,51.20
2017-08-16T14:37:43.896Z,51.90
2017-08-16T14:40:10.294Z,52.50
2017-08-16T14:42:36.716Z,52.60
2017-08-16T14:45:03.151Z,53.30
2017-08-16T14:47:30.322Z,55.20
2017-08-16T14:49:56.851Z,55.20
2017-08-16T14:52:23.254Z,54.80
2017-08-16T14:54:49.659Z,55.10
2017-08-16T14:57:16.038Z,53.90
2017-08-16T14:59:43.203Z,53.00
2017-08-16T15:02:09.626Z,53.00
2017-08-16T15:04:36.042Z,52.80
2017-08-16T15:07:03.174Z,53.00
2017-08-16T15:09:29.603Z,52.90
2017-08-16T15:11:56.071Z,52.30
2017-08-16T15:14:22.503Z,52.50
2017-08-16T15:16:49.683Z,52.50
2017-08-16T15:19:16.106Z,52.40
2017-08-16T15:21:42.540Z,52.50
2017-08-16T15:24:08.988Z,52.60
2017-08-16T15:26:35.435Z,51.90
2017-08-16T15:29:01.826Z,52.10
2017-08-16T15:31:28.953Z,52.20
2017-08-16T15:33:55.358Z,52.20
2017-08-16T15:36:36.691Z,52.60
2017-08-16T15:39:03.914Z,51.20
2017-08-16T15:41:30.330Z,51.20
2017-08-16T15:43:56.718Z,51.00
2017-08-16T15:46:23.538Z,51.30
2017-08-16T15:48:50.704Z,51.60
2017-08-16T15:51:17.093Z,51.70
2017-08-16T15:53:43.511Z,51.30
2017-08-16T15:56:09.930Z,50.70
2017-08-16T15:58:37.214Z,50.20
2017-08-16T16:01:03.631Z,51.40
2017-08-16T16:03:30.045Z,51.00
2017-08-16T16:05:56.432Z,50.20
2017-08-16T16:08:23.586Z,50.50
2017-08-16T16:10:50.719Z,50.10
2017-08-16T16:13:17.160Z,50.10
2017-08-16T16:15:44.310Z,50.90
2017-08-16T16:18:10.776Z,50.40
2017-08-16T16:20:37.179Z,50.40
2017-08-16T16:23:03.583Z,50.10
2017-08-16T16:25:29.968Z,50.60
2017-08-16T16:27:56.402Z,50.50
2017-08-16T16:30:22.819Z,51.10
2017-08-16T16:32:49.958Z,51.50
2017-08-16T16:35:16.383Z,51.50
2017-08-16T16:37:42.784Z,51.10
2017-08-16T16:40:09.189Z,51.30
2017-08-16T16:42:35.594Z,51.20
2017-08-16T16:45:02.739Z,50.60
2017-08-16T16:47:29.898Z,49.70
2017-08-16T16:49:57.047Z,49.80
2017-08-16T16:52:24.793Z,50.00
2017-08-16T16:54:51.229Z,50.00
2017-08-16T16:57:28.423Z,49.50
2017-08-16T16:59:55.011Z,49.70
2017-08-16T17:02:21.407Z,49.60
2017-08-16T17:04:48.555Z,50.10
2017-08-16T17:07:15.702Z,49.60
2017-08-16T17:09:42.822Z,50.20
2017-08-16T17:12:09.229Z,49.50
2017-08-16T17:14:35.633Z,49.50
2017-08-16T17:17:02.019Z,49.60
2017-08-16T17:19:28.467Z,49.60
2017-08-16T17:21:54.922Z,49.70
2017-08-16T17:24:22.067Z,49.80
2017-08-16T17:26:49.228Z,50.50
2017-08-16T17:29:15.647Z,49.90
2017-08-16T17:31:42.042Z,50.50
2017-08-16T17:34:08.466Z,50.00
2017-08-16T17:36:34.935Z,50.40
2017-08-16T17:39:01.342Z,50.70
2017-08-16T17:41:27.747Z,50.60
2017-08-16T17:43:54.199Z,50.50
2017-08-16T17:46:20.584Z,50.50
2017-08-16T17:48:47.734Z,51.30
2017-08-16T17:51:14.858Z,51.60
2017-08-16T17:53:56.188Z,51.60
2017-08-16T17:56:22.598Z,52.00
2017-08-16T17:58:50.353Z,52.80
2017-08-16T18:01:16.767Z,52.90
2017-08-16T18:03:43.195Z,53.40
2017-08-16T18:06:09.592Z,53.50
2017-08-16T18:08:35.990Z,53.40
2017-08-16T18:11:03.147Z,53.60
2017-08-16T18:13:31.187Z,53.90
2017-08-16T18:15:57.598Z,54.50
2017-08-16T18:18:23.999Z,54.10
2017-08-16T18:20:50.501Z,54.40
2017-08-16T18:23:16.906Z,54.60
2017-08-16T18:25:43.323Z,54.90
2017-08-16T18:28:09.742Z,55.20
2017-08-16T18:30:36.174Z,55.30
2017-08-16T18:33:02.599Z,55.60
2017-08-16T18:35:29.035Z,55.70
2017-08-16T18:37:55.461Z,55.70
2017-08-16T18:40:21.871Z,56.20
2017-08-16T18:42:48.994Z,56.40
2017-08-16T18:45:15.406Z,56.40
2017-08-16T18:50:11.543Z,56.80
2017-08-16T18:52:37.950Z,57.10
2017-08-16T18:55:04.444Z,57.60
2017-08-16T18:57:30.894Z,58.20
2017-08-16T18:59:58.042Z,59.20
2017-08-16T19:02:24.459Z,58.60
2017-08-16T19:04:50.890Z,58.40
2017-08-16T19:07:17.294Z,58.50
2017-08-16T19:09:43.717Z,58.60
2017-08-16T19:12:10.122Z,58.70
2017-08-16T19:14:36.590Z,59.20
2017-08-16T19:17:02.995Z,59.40
2017-08-16T19:19:30.127Z,60.10
2017-08-16T19:21:57.277Z,60.60
2017-08-16T19:24:24.430Z,60.30
2017-08-16T19:26:51.577Z,60.90
2017-08-16T19:29:18.738Z,60.60
2017-08-16T19:31:45.932Z,60.40
2017-08-16T19:34:12.346Z,60.40
2017-08-16T19:36:38.750Z,60.60
2017-08-16T19:39:05.871Z,60.60
2017-08-16T19:41:32.283Z,60.60
2017-08-16T19:43:58.680Z,60.70
2017-08-16T19:46:25.084Z,61.00
2017-08-16T19:48:51.504Z,61.10
2017-08-16T19:51:17.912Z,61.00
2017-08-16T19:53:44.356Z,61.40
2017-08-16T19:56:10.771Z,61.50
2017-08-16T19:58:37.192Z,62.40
2017-08-16T20:01:03.963Z,62.50
2017-08-16T20:03:30.363Z,62.20
2017-08-16T20:05:56.799Z,62.10
2017-08-16T20:08:23.240Z,61.90
2017-08-16T20:10:49.743Z,62.30
2017-08-16T20:13:16.894Z,62.70
2017-08-16T20:15:43.311Z,62.70
2017-08-16T20:18:10.516Z,62.70
2017-08-16T20:20:36.958Z,62.70
2017-08-16T20:23:03.378Z,62.70
2017-08-16T20:25:29.806Z,62.50
2017-08-16T20:27:56.204Z,62.10
2017-08-16T20:30:23.336Z,62.30
2017-08-16T20:32:49.760Z,62.30
2017-08-16T20:35:16.154Z,63.10
2017-08-16T20:37:42.567Z,63.10
2017-08-16T20:40:09.019Z,63.50
2017-08-16T20:42:35.458Z,64.30
2017-08-16T20:45:01.915Z,65.00
2017-08-16T20:47:28.769Z,65.50
2017-08-16T20:49:55.190Z,65.10
2017-08-16T20:52:21.603Z,65.30
2017-08-16T20:54:48.048Z,65.00
2017-08-16T20:57:14.491Z,65.50
2017-08-16T20:59:40.902Z,65.90
2017-08-16T21:02:07.303Z,65.10
2017-08-16T21:04:33.715Z,64.50
2017-08-16T21:07:00.128Z,63.60
2017-08-16T21:09:26.530Z,63.70
2017-08-16T21:11:53.004Z,63.90
2017-08-16T21:14:19.438Z,63.90
2017-08-16T21:16:46.787Z,64.00
2017-08-16T21:19:13.198Z,63.90
2017-08-16T21:21:41.026Z,64.30
2017-08-16T21:24:07.460Z,64.30
2017-08-16T21:26:33.865Z,64.80
2017-08-16T21:29:00.271Z,65.80
2017-08-16T21:31:26.699Z,65.80
2017-08-16T21:33:53.167Z,65.50
2017-08-16T21:36:20.342Z,65.00
2017-08-16T21:38:46.786Z,65.00
2017-08-16T21:41:13.204Z,65.00
2017-08-16T21:43:39.614Z,64.80
2017-08-16T21:46:06.026Z,64.80
2017-08-16T21:48:32.447Z,65.60
2017-08-16T21:50:58.858Z,64.80
2017-08-16T21:53:25.271Z,64.40
2017-08-16T21:55:51.690Z,64.90
2017-08-16T21:58:18.835Z,65.10
2017-08-16T22:00:45.990Z,65.90
2017-08-16T22:03:13.130Z,65.80
2017-08-16T22:05:40.284Z,66.00
2017-08-16T22:08:07.221Z,65.50
2017-08-16T22:10:34.418Z,65.60
2017-08-16T22:13:00.912Z,65.60
2017-08-16T22:15:28.042Z,65.90
2017-08-16T22:17:54.419Z,65.90
2017-08-16T22:20:20.814Z,65.50
2017-08-16T22:22:47.283Z,65.50
2017-08-16T22:25:13.727Z,65.60
2017-08-16T22:27:40.142Z,65.80
2017-08-16T22:30:06.571Z,66.10
2017-08-16T22:32:32.958Z,67.10
2017-08-16T22:34:59.366Z,66.40
2017-08-16T22:37:25.800Z,65.90
2017-08-16T22:39:52.215Z,66.30
2017-08-16T22:42:18.610Z,66.90
2017-08-16T22:44:45.009Z,66.70
2017-08-16T22:47:11.395Z,66.80
2017-08-16T22:49:38.664Z,67.00
2017-08-16T22:52:05.090Z,66.90
2017-08-16T22:54:31.505Z,67.10
2017-08-16T22:56:58.730Z,67.20
2017-08-16T22:59:25.129Z,67.10
2017-08-16T23:01:51.518Z,67.30
2017-08-16T23:04:18.667Z,66.70
2017-08-16T23:09:36.598Z,66.40
2017-08-16T23:12:03.024Z,66.20
2017-08-16T23:14:29.431Z,66.40
2017-08-16T23:16:55.827Z,66.00
2017-08-16T23:19:22.974Z,66.20
2017-08-16T23:21:50.140Z,66.30
2017-08-16T23:24:16.679Z,66.30
2017-08-16T23:26:43.103Z,65.90
2017-08-16T23:29:09.511Z,66.40
2017-08-16T23:31:35.939Z,66.60
2017-08-16T23:34:02.378Z,66.70
2017-08-16T23:39:02.679Z,66.10
2017-08-16T23:41:29.112Z,66.60
2017-08-16T23:43:55.522Z,67.10
2017-08-16T23:46:21.954Z,67.40
2017-08-16T23:48:48.374Z,67.70
2017-08-16T23:51:14.786Z,68.60
2017-08-16T23:53:41.194Z,69.10
2017-08-16T23:56:07.608Z,68.50
2017-08-16T23:58:34.063Z,68.70
